Terminal Aerodrome Forecast
Issued by NWS La Crosse, WI

Home | Current Version | Previous Version | Text Only | Print | Product List | Glossary On
Versions: 1 2 3 4 5 6 7 8 9 10 11 12 13 14 15 16 17 18 19 20 21 22 23 24 25 26 27 28 29 30 31 32 33 34 35 36 37 38 39
000
FTUS43 KARX 281734
TAFLSE
TAF
KLSE 281734Z 2818/2918 01007KT P6SM VCSH OVC013
      TEMPO 2818/2821 4SM -SHRA OVC009
     FM290300 03005KT P6SM OVC050
     FM291400 03007KT P6SM BKN050 BKN120=

USA.gov is the U.S. government's official web portal to all federal, state and local government web resources and services.